Virtuous Striker — C6XX6 — position and weather

sailwx.info

Track history (hours):
 
Tides and Currents Weather Stations Pressure Air Temp Water Temp Dewpoint Dewpoint Depression Visibility Wind Speed Wind Dir Waves Ship Positions

Virtuous Striker

Last reported at 2016-Feb-04 11:33 UTC. Time now 2016-Feb-06 09:18 UTC.
Position N 35°57' W 005°45'.

Length 190 m; draft 11.5 m.

Type: Cargo ship. MMSI: 311025100.

Date/timePositionNaut miles runAvg speedWind from/ knotsBaromVisibWave heightAir tempDewpointWater temp
2016-Feb-04 11:33N 35°57' W 005°45'1111.2
2016-Feb-04 10:33N 35°59' W 005°32'9 9.3
2016-Feb-04 09:33N 36°05' W 005°23'3 3.4
2016-Feb-04 08:32N 36°08' W 005°23'0 0.1
2016-Feb-04 07:30N 36°08' W 005°23'0 0.1
2016-Feb-04 06:33N 36°08' W 005°23'0 0.1
2016-Feb-04 05:29N 36°08' W 005°23'0 0.1
2016-Feb-04 04:15N 36°08' W 005°23'0 0.1
2016-Feb-04 03:32N 36°08' W 005°23'0 0.0
2016-Feb-04 00:14N 36°08' W 005°23'1 1.4
2016-Feb-03 23:33N 36°07' W 005°23'3 3.4
2016-Feb-03 22:33N 36°05' W 005°19'7 7.3
2016-Feb-03 21:33N 36°06' W 005°10'19911.6
2016-Feb-03 04:27N 37°06' W 001°14'1112.3
2016-Feb-03 03:33N 37°14' W 001°03'1512.5
2016-Feb-03 02:23N 37°23' W 000°50'1012.2
2016-Feb-03 01:33N 37°30' W 000°40'1211.9
2016-Feb-03 00:33N 37°39' W 000°30'1211.8
2016-Feb-02 23:33N 37°49' W 000°22'1212.2
2016-Feb-02 22:32N 37°59' W 000°13'1212.3
2016-Feb-02 21:33N 38°09' W 000°05'1212.3
2016-Feb-02 20:33N 38°19' E 000°04'1312.5
2016-Feb-02 19:33N 38°30' E 000°13'1312.5
2016-Feb-02 18:30N 38°41' E 000°21'1111.8
2016-Feb-02 17:33N 38°51' E 000°28'1211.0
2016-Feb-02 16:26N 39°02' E 000°34'1311.3
2016-Feb-02 15:15N 39°15' E 000°39'4311.6
2016-Feb-02 11:33N 39°56' E 000°55'1311.7
2016-Feb-02 10:27N 40°09' E 000°54'1111.9
2016-Feb-02 09:33N 40°20' E 000°53'20 9.6
2016-Feb-02 07:30N 40°33' E 000°34'1 0.2
2016-Feb-02 01:31N 40°34' E 000°33'0 0.0
2016-Feb-01 19:26N 40°34' E 000°33'0 0.0
2016-Feb-01 18:31N 40°34' E 000°33'0 0.0
2016-Jan-31 11:31N 40°34' E 000°33'0 0.0
2016-Jan-31 10:32N 40°34' E 000°33'0 0.0
2016-Jan-31 02:13N 40°34' E 000°33'0 0.0
2016-Jan-30 18:17N 40°34' E 000°33'0 0.0
2016-Jan-30 16:08N 40°34' E 000°33'0 0.0
2016-Jan-29 20:31N 40°34' E 000°33'0 0.0
2016-Jan-29 19:31N 40°34' E 000°33'0 0.0
2016-Jan-28 21:11N 40°34' E 000°33'0 0.0
2016-Jan-28 20:29N 40°34' E 000°33'0 0.0
2016-Jan-28 18:08N 40°34' E 000°33'0 0.0
2016-Jan-28 12:26N 40°34' E 000°33'0 0.0
2016-Jan-28 05:31N 40°34' E 000°33'0 0.0
2016-Jan-28 03:08N 40°34' E 000°33'0 0.0
2016-Jan-28 02:31N 40°34' E 000°33'0 0.0
2016-Jan-27 21:32N 40°34' E 000°33'6 0.3
2016-Jan-27 03:32N 40°31' E 000°39'7 7.2
2016-Jan-27 02:33N 40°30' E 000°49'1111.3
2016-Jan-27 01:33N 40°30' E 001°03'1211.6
2016-Jan-27 00:33N 40°29' E 001°19'1212.0
2016-Jan-26 23:33N 40°28' E 001°34'1211.7
2016-Jan-26 22:33N 40°26' E 001°49'1211.8
2016-Jan-26 21:33N 40°25' E 002°05'1211.7
2016-Jan-26 20:33N 40°24' E 002°20'1211.7
2016-Jan-26 19:33N 40°24' E 002°36'1111.3
2016-Jan-26 18:33N 40°24' E 002°50'2311.6
2016-Jan-26 16:33N 40°24' E 003°21'1110.6
2016-Jan-26 15:33N 40°19' E 003°33'25111.9
2016-Jan-25 18:21N 38°31' E 008°27'  
Track history (hours):
 
Tides and Currents Weather Stations Pressure Air Temp Water Temp Dewpoint Dewpoint Depression Visibility Wind Speed Wind Dir Waves Ship Positions

Virtuous Striker

Last reported at 2016-Feb-04 11:33 UTC. Time now 2016-Feb-06 09:18 UTC.
Position N 35°57' W 005°45'.

Length 190 m; draft 11.5 m.

Type: Cargo ship. MMSI: 311025100.

Date/timePositionNaut miles runAvg speedWind from/ knotsBaromVisibWave heightAir tempDewpointWater temp
2016-Feb-04 11:33N 35°57' W 005°45'1111.2
2016-Feb-04 10:33N 35°59' W 005°32'9 9.3
2016-Feb-04 09:33N 36°05' W 005°23'3 3.4
2016-Feb-04 08:32N 36°08' W 005°23'0 0.1
2016-Feb-04 07:30N 36°08' W 005°23'0 0.1
2016-Feb-04 06:33N 36°08' W 005°23'0 0.1
2016-Feb-04 05:29N 36°08' W 005°23'0 0.1
2016-Feb-04 04:15N 36°08' W 005°23'0 0.1
2016-Feb-04 03:32N 36°08' W 005°23'0 0.0
2016-Feb-04 00:14N 36°08' W 005°23'1 1.4
2016-Feb-03 23:33N 36°07' W 005°23'3 3.4
2016-Feb-03 22:33N 36°05' W 005°19'7 7.3
2016-Feb-03 21:33N 36°06' W 005°10'19911.6
2016-Feb-03 04:27N 37°06' W 001°14'1112.3
2016-Feb-03 03:33N 37°14' W 001°03'1512.5
2016-Feb-03 02:23N 37°23' W 000°50'1012.2
2016-Feb-03 01:33N 37°30' W 000°40'1211.9
2016-Feb-03 00:33N 37°39' W 000°30'1211.8
2016-Feb-02 23:33N 37°49' W 000°22'1212.2
2016-Feb-02 22:32N 37°59' W 000°13'1212.3
2016-Feb-02 21:33N 38°09' W 000°05'1212.3
2016-Feb-02 20:33N 38°19' E 000°04'1312.5
2016-Feb-02 19:33N 38°30' E 000°13'1312.5
2016-Feb-02 18:30N 38°41' E 000°21'1111.8
2016-Feb-02 17:33N 38°51' E 000°28'1211.0
2016-Feb-02 16:26N 39°02' E 000°34'1311.3
2016-Feb-02 15:15N 39°15' E 000°39'4311.6
2016-Feb-02 11:33N 39°56' E 000°55'1311.7
2016-Feb-02 10:27N 40°09' E 000°54'1111.9
2016-Feb-02 09:33N 40°20' E 000°53'20 9.6
2016-Feb-02 07:30N 40°33' E 000°34'1 0.2
2016-Feb-02 01:31N 40°34' E 000°33'0 0.0
2016-Feb-01 19:26N 40°34' E 000°33'0 0.0
2016-Feb-01 18:31N 40°34' E 000°33'0 0.0
2016-Jan-31 11:31N 40°34' E 000°33'0 0.0
2016-Jan-31 10:32N 40°34' E 000°33'0 0.0
2016-Jan-31 02:13N 40°34' E 000°33'0 0.0
2016-Jan-30 18:17N 40°34' E 000°33'0 0.0
2016-Jan-30 16:08N 40°34' E 000°33'0 0.0
2016-Jan-29 20:31N 40°34' E 000°33'0 0.0
2016-Jan-29 19:31N 40°34' E 000°33'0 0.0
2016-Jan-28 21:11N 40°34' E 000°33'0 0.0
2016-Jan-28 20:29N 40°34' E 000°33'0 0.0
2016-Jan-28 18:08N 40°34' E 000°33'0 0.0
2016-Jan-28 12:26N 40°34' E 000°33'0 0.0
2016-Jan-28 05:31N 40°34' E 000°33'0 0.0
2016-Jan-28 03:08N 40°34' E 000°33'0 0.0
2016-Jan-28 02:31N 40°34' E 000°33'0 0.0
2016-Jan-27 21:32N 40°34' E 000°33'6 0.3
2016-Jan-27 03:32N 40°31' E 000°39'7 7.2
2016-Jan-27 02:33N 40°30' E 000°49'1111.3
2016-Jan-27 01:33N 40°30' E 001°03'1211.6
2016-Jan-27 00:33N 40°29' E 001°19'1212.0
2016-Jan-26 23:33N 40°28' E 001°34'1211.7
2016-Jan-26 22:33N 40°26' E 001°49'1211.8
2016-Jan-26 21:33N 40°25' E 002°05'1211.7
2016-Jan-26 20:33N 40°24' E 002°20'1211.7
2016-Jan-26 19:33N 40°24' E 002°36'1111.3
2016-Jan-26 18:33N 40°24' E 002°50'2311.6
2016-Jan-26 16:33N 40°24' E 003°21'1110.6
2016-Jan-26 15:33N 40°19' E 003°33'25111.9
2016-Jan-25 18:21N 38°31' E 008°27'  

Dump ship's entire track history